createdAt,value
2022-10-30T00:00:41.044Z,47.36
2022-10-30T00:03:11.074Z,47.43
2022-10-30T00:05:39.863Z,47.33
2022-10-30T00:08:06.677Z,47.34
2022-10-30T00:10:33.135Z,47.38
2022-10-30T00:12:59.598Z,47.34
2022-10-30T00:15:26.063Z,47.27
2022-10-30T00:17:52.525Z,47.21
2022-10-30T00:20:19.229Z,47.45
2022-10-30T00:22:47.016Z,47.35
2022-10-30T00:25:13.481Z,47.69
2022-10-30T00:27:39.955Z,47.47
2022-10-30T00:30:07.063Z,47.65
2022-10-30T00:32:33.514Z,47.54
2022-10-30T00:35:00.008Z,47.46
2022-10-30T00:37:26.798Z,47.66
2022-10-30T00:39:53.272Z,47.65
2022-10-30T00:42:19.739Z,47.59
2022-10-30T00:44:50.238Z,47.81
2022-10-30T00:47:27.360Z,47.62
2022-10-30T00:50:09.174Z,47.80
2022-10-30T00:52:37.417Z,47.71
2022-10-30T00:55:07.576Z,47.67
2022-10-30T00:57:34.325Z,47.67
2022-10-30T01:00:00.837Z,47.76
2022-10-30T01:02:27.584Z,47.74
2022-10-30T01:04:54.158Z,47.74
2022-10-30T01:07:21.700Z,47.54
2022-10-30T01:09:48.185Z,47.68
2022-10-30T01:12:15.448Z,47.54
2022-10-30T01:14:45.434Z,47.63
2022-10-30T01:17:37.153Z,47.62
2022-10-30T01:20:26.712Z,47.67
2022-10-30T01:23:31.893Z,47.68
2022-10-30T01:26:22.263Z,47.61
2022-10-30T01:29:16.276Z,47.48
2022-10-30T01:32:05.938Z,47.50
2022-10-30T01:34:47.348Z,47.70
2022-10-30T01:37:22.325Z,47.53
2022-10-30T01:39:48.844Z,47.74
2022-10-30T01:42:52.977Z,47.67
2022-10-30T01:45:30.326Z,47.70
2022-10-30T01:48:18.403Z,47.83
2022-10-30T01:51:03.830Z,47.67
2022-10-30T01:53:35.519Z,47.66
2022-10-30T01:56:11.081Z,47.61
2022-10-30T01:58:43.513Z,47.74
2022-10-30T02:01:10.024Z,47.41
2022-10-30T02:03:36.527Z,47.48
2022-10-30T02:06:03.066Z,47.73
2022-10-30T02:08:29.511Z,47.50
2022-10-30T02:10:56.301Z,47.63
2022-10-30T02:13:22.779Z,47.60
2022-10-30T02:15:49.323Z,47.88
2022-10-30T02:18:17.187Z,47.68
2022-10-30T02:20:43.693Z,47.69
2022-10-30T02:23:16.714Z,47.48
2022-10-30T02:25:43.210Z,48.01
2022-10-30T02:28:09.671Z,47.63
2022-10-30T02:30:36.135Z,47.88
2022-10-30T02:33:02.722Z,47.70
2022-10-30T02:35:29.802Z,47.61
2022-10-30T02:37:56.665Z,47.76
2022-10-30T02:40:23.323Z,47.63
2022-10-30T02:42:53.324Z,47.93
2022-10-30T02:45:20.161Z,47.61
2022-10-30T02:47:46.647Z,47.92
2022-10-30T02:50:13.288Z,47.74
2022-10-30T02:52:39.942Z,47.88
2022-10-30T02:55:06.619Z,47.79
2022-10-30T02:57:33.801Z,47.93
2022-10-30T03:00:00.342Z,47.70
2022-10-30T03:02:26.822Z,47.69
2022-10-30T03:04:53.322Z,47.77
2022-10-30T03:07:19.788Z,47.85
2022-10-30T03:09:46.249Z,47.90
2022-10-30T03:12:12.698Z,47.96
2022-10-30T03:14:39.207Z,47.88
2022-10-30T03:17:05.696Z,48.05
2022-10-30T03:19:32.189Z,47.65
2022-10-30T03:21:58.666Z,47.93
2022-10-30T03:24:25.144Z,47.73
2022-10-30T03:26:51.608Z,47.60
2022-10-30T03:29:18.063Z,47.82
2022-10-30T03:31:44.522Z,47.91
2022-10-30T03:34:11.124Z,47.61
2022-10-30T03:36:37.592Z,47.83
2022-10-30T03:39:04.632Z,47.69
2022-10-30T03:41:31.103Z,47.84
2022-10-30T03:43:57.549Z,47.96
2022-10-30T03:46:24.013Z,47.76
2022-10-30T03:48:50.648Z,48.06
2022-10-30T03:51:17.199Z,47.83
2022-10-30T03:53:43.673Z,47.76
2022-10-30T03:56:10.162Z,47.88
2022-10-30T03:58:36.614Z,47.83
2022-10-30T04:01:06.800Z,48.07
2022-10-30T04:03:33.326Z,47.71
2022-10-30T04:05:59.865Z,47.82
2022-10-30T04:08:26.342Z,47.88
2022-10-30T04:10:52.842Z,47.69
2022-10-30T04:13:20.360Z,47.87
2022-10-30T04:15:56.115Z,47.93
2022-10-30T04:18:24.462Z,47.74
2022-10-30T04:20:50.938Z,47.58
2022-10-30T04:23:18.539Z,47.97
2022-10-30T04:25:45.100Z,47.78
2022-10-30T04:28:11.646Z,47.65
2022-10-30T04:30:39.420Z,47.78
2022-10-30T04:33:07.189Z,47.63
2022-10-30T04:35:34.759Z,47.83
2022-10-30T04:38:08.280Z,47.82
2022-10-30T04:40:36.024Z,47.67
2022-10-30T04:43:05.220Z,47.73
2022-10-30T04:45:31.893Z,47.71
2022-10-30T04:48:11.561Z,47.89
2022-10-30T04:50:38.875Z,47.97
2022-10-30T04:53:13.963Z,48.07
2022-10-30T04:55:40.430Z,47.75
2022-10-30T04:58:08.122Z,47.76
2022-10-30T05:00:35.098Z,47.84
2022-10-30T05:03:01.755Z,47.80
2022-10-30T05:05:29.191Z,47.85
2022-10-30T05:07:55.989Z,47.82
2022-10-30T05:10:22.779Z,47.99
2022-10-30T05:12:51.690Z,47.77
2022-10-30T05:15:18.151Z,47.85
2022-10-30T05:17:44.603Z,48.11
2022-10-30T05:20:14.742Z,48.09
2022-10-30T05:22:42.874Z,48.05
2022-10-30T05:25:09.656Z,48.19
2022-10-30T05:27:36.123Z,47.83
2022-10-30T05:30:02.589Z,48.07
2022-10-30T05:32:29.061Z,48.04
2022-10-30T05:34:55.568Z,47.98
2022-10-30T05:37:22.072Z,47.96
2022-10-30T05:39:48.885Z,48.02
2022-10-30T05:42:15.364Z,47.98
2022-10-30T05:44:59.701Z,47.89
2022-10-30T05:47:27.151Z,48.03
2022-10-30T05:49:53.611Z,48.05
2022-10-30T05:52:20.076Z,47.84
2022-10-30T05:54:46.612Z,47.91
2022-10-30T05:57:13.067Z,47.89
2022-10-30T05:59:39.523Z,47.82
2022-10-30T06:02:06.029Z,47.92
2022-10-30T06:04:32.542Z,47.80
2022-10-30T06:06:59.005Z,47.75
2022-10-30T06:09:25.457Z,47.94
2022-10-30T06:11:51.941Z,48.09
2022-10-30T06:14:18.393Z,48.09
2022-10-30T06:16:44.896Z,47.90
2022-10-30T06:19:15.650Z,47.67
2022-10-30T06:21:45.559Z,47.77
2022-10-30T06:24:12.067Z,47.58
2022-10-30T06:26:38.545Z,47.63
2022-10-30T06:29:05.023Z,47.70
2022-10-30T06:31:31.500Z,47.76
2022-10-30T06:33:58.036Z,47.77
2022-10-30T06:36:24.509Z,47.62
2022-10-30T06:38:50.982Z,47.86
2022-10-30T06:41:17.441Z,47.83
2022-10-30T06:43:43.934Z,47.85
2022-10-30T06:46:10.458Z,47.77
2022-10-30T06:48:36.918Z,47.76
2022-10-30T06:51:03.459Z,48.01
2022-10-30T06:53:29.933Z,47.77
2022-10-30T06:56:00.492Z,48.05
2022-10-30T06:58:27.282Z,47.86
2022-10-30T07:00:53.777Z,48.08
2022-10-30T07:03:20.270Z,48.30
2022-10-30T07:05:46.792Z,48.35
2022-10-30T07:08:13.291Z,48.14
2022-10-30T07:10:39.879Z,48.37
2022-10-30T07:13:06.355Z,48.33
2022-10-30T07:15:32.870Z,48.04
2022-10-30T07:18:03.314Z,48.38
2022-10-30T07:20:32.141Z,48.20
2022-10-30T07:22:58.722Z,48.46
2022-10-30T07:25:25.271Z,48.62
2022-10-30T07:27:52.145Z,48.67
2022-10-30T07:33:01.967Z,48.80
2022-10-30T07:35:29.001Z,48.81
2022-10-30T07:37:55.595Z,48.81
2022-10-30T07:40:22.211Z,48.91
2022-10-30T07:42:48.663Z,48.74
2022-10-30T07:45:15.230Z,48.82
2022-10-30T07:47:45.134Z,48.65
2022-10-30T07:50:11.813Z,48.75
2022-10-30T07:52:38.321Z,48.85
2022-10-30T07:55:05.287Z,48.41
2022-10-30T07:57:38.509Z,48.39
2022-10-30T08:00:06.073Z,48.65
2022-10-30T08:02:32.753Z,48.58
2022-10-30T08:04:59.319Z,48.22
2022-10-30T08:07:36.254Z,48.18
2022-10-30T08:10:02.906Z,48.12
2022-10-30T08:12:29.381Z,48.18
2022-10-30T08:14:55.854Z,48.32
2022-10-30T08:17:22.322Z,48.27
2022-10-30T08:19:49.374Z,48.03
2022-10-30T08:22:15.830Z,48.40
2022-10-30T08:24:42.313Z,49.94
2022-10-30T08:27:09.463Z,50.24
2022-10-30T08:29:35.936Z,50.28
2022-10-30T08:32:02.391Z,50.80
2022-10-30T08:34:31.593Z,51.09
2022-10-30T08:36:58.420Z,50.62
2022-10-30T08:39:24.884Z,49.67
2022-10-30T08:41:51.337Z,49.00
2022-10-30T08:44:17.793Z,48.29
2022-10-30T08:46:44.259Z,47.87
2022-10-30T08:49:10.716Z,47.89
2022-10-30T08:51:37.194Z,47.56
2022-10-30T08:54:03.766Z,47.57
2022-10-30T08:56:30.238Z,47.58
2022-10-30T08:58:56.695Z,47.47
2022-10-30T09:01:23.288Z,47.38
2022-10-30T09:03:49.862Z,46.95
2022-10-30T09:06:16.326Z,46.66
2022-10-30T09:08:42.833Z,46.67
2022-10-30T09:11:09.353Z,46.55
2022-10-30T09:13:35.800Z,46.50
2022-10-30T09:16:02.449Z,46.86
2022-10-30T09:18:29.129Z,46.91
2022-10-30T09:20:55.633Z,46.46
2022-10-30T09:23:22.474Z,46.33
2022-10-30T09:25:48.942Z,46.22
2022-10-30T09:28:15.395Z,46.38
2022-10-30T09:30:42.140Z,45.90
2022-10-30T09:33:08.727Z,46.09
2022-10-30T09:35:37.013Z,45.77
2022-10-30T09:38:03.636Z,45.78
2022-10-30T09:40:37.634Z,45.57
2022-10-30T09:43:22.341Z,45.62
2022-10-30T09:46:20.033Z,45.45
2022-10-30T09:49:04.635Z,45.56
2022-10-30T09:51:49.012Z,45.67
2022-10-30T09:54:35.422Z,45.62
2022-10-30T09:57:09.797Z,45.33
2022-10-30T09:59:45.557Z,45.65
2022-10-30T10:02:58.169Z,45.36
2022-10-30T10:05:27.102Z,45.29
2022-10-30T10:07:57.293Z,45.36
2022-10-30T10:10:32.593Z,45.32
2022-10-30T10:13:01.497Z,45.08
2022-10-30T10:15:49.900Z,45.40
2022-10-30T10:18:23.900Z,45.01
2022-10-30T10:20:51.472Z,45.28
2022-10-30T10:23:33.815Z,45.27
2022-10-30T10:26:00.728Z,44.81
2022-10-30T10:28:56.566Z,44.95
2022-10-30T10:31:22.934Z,45.14
2022-10-30T10:34:16.999Z,44.98
2022-10-30T10:37:08.181Z,44.88
2022-10-30T10:40:15.007Z,45.06
2022-10-30T10:43:14.327Z,45.11
2022-10-30T10:45:56.428Z,44.74
2022-10-30T10:48:52.986Z,45.08
2022-10-30T10:51:29.922Z,44.62
2022-10-30T10:54:05.779Z,44.69
2022-10-30T10:56:36.846Z,44.50
2022-10-30T10:59:04.823Z,44.76
2022-10-30T11:01:39.838Z,44.42
2022-10-30T11:04:09.015Z,44.74
2022-10-30T11:06:36.317Z,44.58
2022-10-30T11:09:22.047Z,44.78
2022-10-30T11:11:49.376Z,44.86
2022-10-30T11:14:27.938Z,44.92
2022-10-30T11:17:12.851Z,44.74
2022-10-30T11:19:39.334Z,44.90
2022-10-30T11:22:38.397Z,44.66
2022-10-30T11:25:26.922Z,44.87
2022-10-30T11:27:58.126Z,44.99
2022-10-30T11:30:26.376Z,44.66
2022-10-30T11:32:55.401Z,45.03
2022-10-30T11:35:23.606Z,44.64
2022-10-30T11:38:10.896Z,44.66
2022-10-30T11:40:37.417Z,44.91
2022-10-30T11:43:04.421Z,44.40
2022-10-30T11:45:32.682Z,44.74
2022-10-30T11:48:02.452Z,44.78
2022-10-30T11:50:30.674Z,44.76
2022-10-30T11:53:21.708Z,44.89
2022-10-30T11:55:48.305Z,45.07
2022-10-30T11:58:29.459Z,45.08
2022-10-30T12:01:06.099Z,44.86
2022-10-30T12:03:39.597Z,44.96
2022-10-30T12:06:20.018Z,45.21
2022-10-30T12:09:00.378Z,45.08
2022-10-30T12:11:34.101Z,44.94
2022-10-30T12:14:00.610Z,45.01
2022-10-30T12:16:27.242Z,45.55
2022-10-30T12:19:02.507Z,45.43
2022-10-30T12:21:38.936Z,45.66
2022-10-30T12:24:10.607Z,45.12
2022-10-30T12:26:37.104Z,45.19
2022-10-30T12:29:12.411Z,45.17
2022-10-30T12:31:40.937Z,45.38
2022-10-30T12:34:25.124Z,45.09
2022-10-30T12:36:55.466Z,44.99
2022-10-30T12:39:23.778Z,45.24
2022-10-30T12:42:10.766Z,45.04
2022-10-30T12:44:42.510Z,45.08
2022-10-30T12:47:11.310Z,44.90
2022-10-30T12:50:13.267Z,44.87
2022-10-30T12:52:59.683Z,45.00
2022-10-30T12:55:34.682Z,44.98
2022-10-30T12:58:14.579Z,45.00
2022-10-30T13:00:55.876Z,45.06
2022-10-30T13:03:26.439Z,45.29
2022-10-30T13:05:59.941Z,45.31
2022-10-30T13:08:30.897Z,45.08
2022-10-30T13:11:09.786Z,44.97
2022-10-30T13:13:50.030Z,45.16
2022-10-30T13:16:37.675Z,45.43
2022-10-30T13:19:05.770Z,45.03
2022-10-30T13:21:46.737Z,45.13
2022-10-30T13:24:18.107Z,45.39
2022-10-30T13:26:53.194Z,45.48
2022-10-30T13:29:29.849Z,45.24
2022-10-30T13:32:20.635Z,45.63
2022-10-30T13:35:18.318Z,45.41
2022-10-30T13:38:03.144Z,45.92
2022-10-30T13:40:33.838Z,46.14
2022-10-30T13:43:06.921Z,45.95
2022-10-30T13:45:44.623Z,46.35
2022-10-30T13:48:20.581Z,45.97
2022-10-30T13:50:58.563Z,45.95
2022-10-30T13:53:26.771Z,46.39
2022-10-30T13:55:53.228Z,46.33
2022-10-30T13:58:28.355Z,46.33
2022-10-30T14:00:57.763Z,46.29
2022-10-30T14:03:48.444Z,46.47
2022-10-30T14:06:33.708Z,46.77
2022-10-30T14:09:19.745Z,46.63
2022-10-30T14:11:46.290Z,47.03
2022-10-30T14:14:12.625Z,46.96
2022-10-30T14:16:42.815Z,46.78
2022-10-30T14:19:12.935Z,46.96
2022-10-30T14:21:52.814Z,46.79
2022-10-30T14:24:21.740Z,47.05
2022-10-30T14:27:03.228Z,47.17
2022-10-30T14:29:36.010Z,47.25
2022-10-30T14:32:14.459Z,47.67
2022-10-30T14:34:50.203Z,47.60
2022-10-30T14:37:22.606Z,47.83
2022-10-30T14:39:50.218Z,48.07
2022-10-30T14:42:20.182Z,48.08
2022-10-30T14:45:01.260Z,47.98
2022-10-30T14:47:42.877Z,48.16
2022-10-30T14:50:27.592Z,48.21
2022-10-30T14:52:57.376Z,48.19
2022-10-30T14:55:55.402Z,48.46
2022-10-30T14:58:29.855Z,48.23
2022-10-30T15:01:18.987Z,48.41
2022-10-30T15:04:09.556Z,48.66
2022-10-30T15:06:48.070Z,48.47
2022-10-30T15:09:23.930Z,48.49
2022-10-30T15:12:08.657Z,48.77
2022-10-30T15:14:53.411Z,48.66
2022-10-30T15:17:28.352Z,49.12
2022-10-30T15:19:54.861Z,49.00
2022-10-30T15:22:21.962Z,48.98
2022-10-30T15:24:48.495Z,49.04
2022-10-30T15:27:17.277Z,49.26
2022-10-30T15:29:45.473Z,48.91
2022-10-30T15:32:19.696Z,48.91
2022-10-30T15:35:02.816Z,49.08
2022-10-30T15:37:29.443Z,49.19
2022-10-30T15:40:14.166Z,49.45
2022-10-30T15:42:40.692Z,49.23
2022-10-30T15:45:17.379Z,49.24
2022-10-30T15:47:46.330Z,49.45
2022-10-30T15:50:12.863Z,49.30
2022-10-30T15:52:40.232Z,49.34
2022-10-30T15:55:07.863Z,49.42
2022-10-30T16:00:30.561Z,49.43
2022-10-30T16:03:04.554Z,49.69
2022-10-30T16:05:31.122Z,49.52
2022-10-30T16:07:58.770Z,49.33
2022-10-30T16:10:32.340Z,49.62
2022-10-30T16:12:59.087Z,49.37
2022-10-30T16:15:35.934Z,49.51
2022-10-30T16:18:10.325Z,49.53
2022-10-30T16:20:37.094Z,49.36
2022-10-30T16:23:03.994Z,49.32
2022-10-30T16:25:32.600Z,48.94
2022-10-30T16:27:59.282Z,48.75
2022-10-30T16:30:29.405Z,48.54
2022-10-30T16:32:56.075Z,49.02
2022-10-30T16:35:23.084Z,48.95
2022-10-30T16:37:50.596Z,48.82
2022-10-30T16:40:19.373Z,48.50
2022-10-30T16:42:53.165Z,48.79
2022-10-30T16:45:19.520Z,48.43
2022-10-30T16:47:46.913Z,48.66
2022-10-30T16:50:15.277Z,48.62
2022-10-30T16:52:41.751Z,48.35
2022-10-30T16:55:13.096Z,48.34
2022-10-30T16:57:43.793Z,48.20
2022-10-30T17:00:27.537Z,48.08
2022-10-30T17:02:55.421Z,48.15
2022-10-30T17:05:29.105Z,48.26
2022-10-30T17:08:00.079Z,48.53
2022-10-30T17:10:42.633Z,48.46
2022-10-30T17:13:31.832Z,48.76
2022-10-30T17:15:58.768Z,48.87
2022-10-30T17:18:31.338Z,48.77
2022-10-30T17:21:06.572Z,48.87
2022-10-30T17:23:33.355Z,48.97
2022-10-30T17:25:59.823Z,48.92
2022-10-30T17:28:33.151Z,49.35
2022-10-30T17:31:19.386Z,49.82
2022-10-30T17:33:46.427Z,49.57
2022-10-30T17:36:12.913Z,49.44
2022-10-30T17:38:39.457Z,49.87
2022-10-30T17:41:06.970Z,49.89
2022-10-30T17:43:34.820Z,49.98
2022-10-30T17:46:01.451Z,49.90
2022-10-30T17:48:28.642Z,49.79
2022-10-30T17:50:55.428Z,50.00
2022-10-30T17:53:25.359Z,49.90
2022-10-30T17:56:06.487Z,49.68
2022-10-30T17:58:33.366Z,49.87
2022-10-30T18:00:59.966Z,49.44
2022-10-30T18:03:26.442Z,49.76
2022-10-30T18:05:53.129Z,49.55
2022-10-30T18:08:19.643Z,49.82
2022-10-30T18:10:46.224Z,49.84
2022-10-30T18:13:13.629Z,49.98
2022-10-30T18:15:44.817Z,49.69
2022-10-30T18:18:11.310Z,49.64
2022-10-30T18:20:38.719Z,49.55
2022-10-30T18:23:12.717Z,49.63
2022-10-30T18:25:46.882Z,49.30
2022-10-30T18:28:13.339Z,49.41
2022-10-30T18:30:39.871Z,49.50
2022-10-30T18:33:06.362Z,49.31
2022-10-30T18:35:36.831Z,49.32
2022-10-30T18:38:03.677Z,49.68
2022-10-30T18:40:30.164Z,49.77
2022-10-30T18:42:56.986Z,50.18
2022-10-30T18:45:25.543Z,49.76
2022-10-30T18:47:52.342Z,50.11
2022-10-30T18:50:19.720Z,49.70
2022-10-30T18:52:46.245Z,49.78
2022-10-30T18:55:17.288Z,50.15
2022-10-30T18:57:44.167Z,50.58
2022-10-30T19:00:11.113Z,50.71
2022-10-30T19:02:37.812Z,50.58
2022-10-30T19:05:27.113Z,50.14
2022-10-30T19:07:54.183Z,50.05
2022-10-30T19:10:20.745Z,50.20
2022-10-30T19:13:11.045Z,50.30
2022-10-30T19:15:35.143Z,50.09
2022-10-30T19:18:02.182Z,50.52
2022-10-30T19:20:44.056Z,50.67
2022-10-30T19:23:20.607Z,50.63
2022-10-30T19:25:47.712Z,50.29
2022-10-30T19:28:14.926Z,50.54
2022-10-30T19:30:41.705Z,50.28
2022-10-30T19:33:09.124Z,50.65
2022-10-30T19:35:35.573Z,50.30
2022-10-30T19:38:02.983Z,50.63
2022-10-30T19:40:33.633Z,50.52
2022-10-30T19:43:00.317Z,50.51
2022-10-30T19:45:28.847Z,50.73
2022-10-30T19:47:56.771Z,50.52
2022-10-30T19:50:39.134Z,51.04
2022-10-30T19:53:05.982Z,50.88
2022-10-30T19:55:33.939Z,50.62
2022-10-30T19:58:00.796Z,50.62
2022-10-30T20:00:32.307Z,50.82
2022-10-30T20:02:59.235Z,50.71
2022-10-30T20:05:27.717Z,50.72
2022-10-30T20:08:05.435Z,50.75
2022-10-30T20:12:59.680Z,50.86
2022-10-30T20:15:27.348Z,50.69
2022-10-30T20:17:53.913Z,50.48
2022-10-30T20:20:22.887Z,50.41
2022-10-30T20:22:51.159Z,50.45
2022-10-30T20:25:17.841Z,50.55
2022-10-30T20:27:44.721Z,50.87
2022-10-30T20:30:14.316Z,50.74
2022-10-30T20:32:40.792Z,50.50
2022-10-30T20:35:10.429Z,50.27
2022-10-30T20:37:37.937Z,50.49
2022-10-30T20:40:04.884Z,50.56
2022-10-30T20:42:36.964Z,50.49
2022-10-30T20:45:04.358Z,50.11
2022-10-30T20:47:30.835Z,50.05
2022-10-30T20:49:57.323Z,50.00
2022-10-30T20:52:23.809Z,50.35
2022-10-30T20:54:50.374Z,50.12
2022-10-30T20:57:17.968Z,50.30
2022-10-30T20:59:44.782Z,49.85
2022-10-30T21:02:11.596Z,49.97
2022-10-30T21:04:38.148Z,49.79
2022-10-30T21:07:04.609Z,49.47
2022-10-30T21:09:31.061Z,49.23
2022-10-30T21:11:57.543Z,49.46
2022-10-30T21:14:24.008Z,49.10
2022-10-30T21:16:50.530Z,49.17
2022-10-30T21:19:16.993Z,49.04
2022-10-30T21:21:43.468Z,49.25
2022-10-30T21:24:10.008Z,49.00
2022-10-30T21:26:37.726Z,49.01
2022-10-30T21:29:05.046Z,49.24
2022-10-30T21:31:31.548Z,49.03
2022-10-30T21:33:58.001Z,49.04
2022-10-30T21:36:24.824Z,48.86
2022-10-30T21:38:51.273Z,48.84
2022-10-30T21:41:19.977Z,48.87
2022-10-30T21:43:50.898Z,49.04
2022-10-30T21:46:17.392Z,48.80
2022-10-30T21:48:43.851Z,48.97
2022-10-30T21:51:12.398Z,48.55
2022-10-30T21:53:39.024Z,48.41
2022-10-30T21:56:16.319Z,48.39
2022-10-30T21:58:42.804Z,48.16
2022-10-30T22:01:16.321Z,47.91
2022-10-30T22:03:42.867Z,47.69
2022-10-30T22:06:11.214Z,47.39
2022-10-30T22:08:37.860Z,47.50
2022-10-30T22:11:08.645Z,47.41
2022-10-30T22:13:35.335Z,47.22
2022-10-30T22:16:02.049Z,47.06
2022-10-30T22:18:28.550Z,46.84
2022-10-30T22:21:21.549Z,46.75
2022-10-30T22:23:48.025Z,46.67
2022-10-30T22:26:18.659Z,46.56
2022-10-30T22:28:45.222Z,46.84
2022-10-30T22:31:13.407Z,46.42
2022-10-30T22:33:39.927Z,46.55
2022-10-30T22:36:13.019Z,46.66
2022-10-30T22:38:39.490Z,46.63
2022-10-30T22:41:08.666Z,46.60
2022-10-30T22:43:35.133Z,46.55
2022-10-30T22:46:02.028Z,46.53
2022-10-30T22:48:29.061Z,46.38
2022-10-30T22:50:59.444Z,46.25
2022-10-30T22:53:26.701Z,46.18
2022-10-30T22:55:53.285Z,46.41
2022-10-30T22:58:19.775Z,46.49
2022-10-30T23:00:46.241Z,46.46
2022-10-30T23:03:12.843Z,46.48
2022-10-30T23:05:39.322Z,46.68
2022-10-30T23:08:05.827Z,46.82
2022-10-30T23:10:32.323Z,46.76
2022-10-30T23:12:59.064Z,46.97
2022-10-30T23:15:25.722Z,46.92
2022-10-30T23:17:52.188Z,47.15
2022-10-30T23:20:18.693Z,47.02
2022-10-30T23:22:45.146Z,47.13
2022-10-30T23:25:11.609Z,46.97
2022-10-30T23:27:38.079Z,47.29
2022-10-30T23:30:04.972Z,47.12
2022-10-30T23:32:31.427Z,47.20
2022-10-30T23:34:57.878Z,46.94
2022-10-30T23:37:24.327Z,47.00
2022-10-30T23:39:50.818Z,46.97
2022-10-30T23:42:17.273Z,47.03
2022-10-30T23:44:43.727Z,46.91
2022-10-30T23:47:10.182Z,46.92
2022-10-30T23:49:36.639Z,47.08
2022-10-30T23:52:03.120Z,47.02
2022-10-30T23:54:29.623Z,47.25
2022-10-30T23:56:56.090Z,47.12
2022-10-30T23:59:22.562Z,47.20
